sensor_id;sensor_type;location;lat;lon;timestamp;P1;durP1;ratioP1;P2;durP2;ratioP2
43527;SDS011;52359;42.658;23.320;2023-03-14T06:43:23;29.75;;;13.25;;
43527;SDS011;52359;42.658;23.320;2023-03-14T06:45:49;28.45;;;12.40;;
43527;SDS011;52359;42.658;23.320;2023-03-14T06:48:14;34.10;;;12.30;;
43527;SDS011;52359;42.658;23.320;2023-03-14T06:50:40;33.72;;;12.77;;
43527;SDS011;52359;42.658;23.320;2023-03-14T06:53:07;29.38;;;12.80;;
43527;SDS011;52359;42.658;23.320;2023-03-14T06:55:32;21.50;;;12.57;;
43527;SDS011;52359;42.658;23.320;2023-03-14T06:57:58;34.17;;;12.40;;
43527;SDS011;52359;42.658;23.320;2023-03-14T07:00:23;25.35;;;12.48;;
43527;SDS011;52359;42.658;23.320;2023-03-14T07:02:50;24.02;;;11.20;;
43527;SDS011;52359;42.658;23.320;2023-03-14T07:05:15;17.70;;;10.77;;
43527;SDS011;52359;42.658;23.320;2023-03-14T07:07:41;31.73;;;13.93;;
43527;SDS011;52359;42.658;23.320;2023-03-14T07:10:06;46.45;;;14.30;;
43527;SDS011;52359;42.658;23.320;2023-03-14T07:12:33;21.33;;;8.25;;
43527;SDS011;52359;42.658;23.320;2023-03-14T07:14:59;32.85;;;8.95;;
43527;SDS011;52359;42.658;23.320;2023-03-14T07:17:25;31.95;;;10.05;;
43527;SDS011;52359;42.658;23.320;2023-03-14T07:19:50;17.67;;;8.98;;
43527;SDS011;52359;42.658;23.320;2023-03-14T07:22:16;20.58;;;9.52;;
43527;SDS011;52359;42.658;23.320;2023-03-14T07:24:41;23.67;;;8.88;;
43527;SDS011;52359;42.658;23.320;2023-03-14T07:27:07;19.17;;;8.10;;
43527;SDS011;52359;42.658;23.320;2023-03-14T07:29:33;25.85;;;8.38;;
43527;SDS011;52359;42.658;23.320;2023-03-14T07:31:58;14.02;;;7.47;;
43527;SDS011;52359;42.658;23.320;2023-03-14T07:34:24;15.25;;;7.47;;
43527;SDS011;52359;42.658;23.320;2023-03-14T07:36:49;12.20;;;8.00;;
43527;SDS011;52359;42.658;23.320;2023-03-14T07:39:15;17.42;;;7.28;;
43527;SDS011;52359;42.658;23.320;2023-03-14T07:41:41;17.48;;;7.68;;
43527;SDS011;52359;42.658;23.320;2023-03-14T07:44:06;12.60;;;7.22;;
43527;SDS011;52359;42.658;23.320;2023-03-14T07:46:32;21.15;;;9.20;;
43527;SDS011;52359;42.658;23.320;2023-03-14T07:48:58;17.83;;;8.75;;
43527;SDS011;52359;42.658;23.320;2023-03-14T07:51:23;21.00;;;7.90;;
43527;SDS011;52359;42.658;23.320;2023-03-14T07:53:49;15.98;;;7.38;;
43527;SDS011;52359;42.658;23.320;2023-03-14T07:56:14;12.43;;;7.75;;
43527;SDS011;52359;42.658;23.320;2023-03-14T07:58:40;13.55;;;7.70;;
43527;SDS011;52359;42.658;23.320;2023-03-14T08:01:06;15.98;;;8.57;;
43527;SDS011;52359;42.658;23.320;2023-03-14T08:03:31;11.85;;;6.75;;
43527;SDS011;52359;42.658;23.320;2023-03-14T08:05:57;20.95;;;10.75;;
43527;SDS011;52359;42.658;23.320;2023-03-14T08:08:23;28.13;;;10.77;;
43527;SDS011;52359;42.658;23.320;2023-03-14T08:10:48;25.05;;;9.75;;
43527;SDS011;52359;42.658;23.320;2023-03-14T08:13:14;25.38;;;9.57;;
43527;SDS011;52359;42.658;23.320;2023-03-14T08:15:40;19.35;;;9.05;;
43527;SDS011;52359;42.658;23.320;2023-03-14T08:18:06;15.75;;;9.02;;
43527;SDS011;52359;42.658;23.320;2023-03-14T08:20:32;17.58;;;9.35;;
43527;SDS011;52359;42.658;23.320;2023-03-14T08:22:58;20.10;;;10.27;;
43527;SDS011;52359;42.658;23.320;2023-03-14T08:25:26;23.45;;;11.43;;
43527;SDS011;52359;42.658;23.320;2023-03-14T08:27:52;22.70;;;11.60;;
43527;SDS011;52359;42.658;23.320;2023-03-14T08:30:19;28.75;;;11.27;;
43527;SDS011;52359;42.658;23.320;2023-03-14T08:32:45;21.27;;;11.02;;
43527;SDS011;52359;42.658;23.320;2023-03-14T08:35:11;27.90;;;10.75;;
43527;SDS011;52359;42.658;23.320;2023-03-14T08:37:37;13.88;;;10.40;;
43527;SDS011;52359;42.658;23.320;2023-03-14T08:40:04;19.38;;;11.35;;
43527;SDS011;52359;42.658;23.320;2023-03-14T08:42:35;16.40;;;11.27;;
43527;SDS011;52359;42.658;23.320;2023-03-14T08:45:01;18.63;;;11.73;;
43527;SDS011;52359;42.658;23.320;2023-03-14T08:47:26;22.30;;;11.18;;
43527;SDS011;52359;42.658;23.320;2023-03-14T08:49:52;28.00;;;11.85;;
43527;SDS011;52359;42.658;23.320;2023-03-14T08:52:18;22.58;;;11.20;;
43527;SDS011;52359;42.658;23.320;2023-03-14T08:54:44;17.58;;;10.13;;
43527;SDS011;52359;42.658;23.320;2023-03-14T08:57:10;23.60;;;10.68;;
43527;SDS011;52359;42.658;23.320;2023-03-14T08:59:35;16.30;;;11.65;;
43527;SDS011;52359;42.658;23.320;2023-03-14T09:02:02;28.13;;;11.15;;
43527;SDS011;52359;42.658;23.320;2023-03-14T09:04:31;21.45;;;11.50;;
43527;SDS011;52359;42.658;23.320;2023-03-14T09:06:57;20.85;;;10.98;;
43527;SDS011;52359;42.658;23.320;2023-03-14T09:09:23;15.48;;;10.52;;
43527;SDS011;52359;42.658;23.320;2023-03-14T09:11:50;22.05;;;11.18;;
43527;SDS011;52359;42.658;23.320;2023-03-14T09:14:16;18.20;;;9.50;;
43527;SDS011;52359;42.658;23.320;2023-03-14T09:16:42;16.30;;;8.95;;
43527;SDS011;52359;42.658;23.320;2023-03-14T09:19:08;18.08;;;8.63;;
43527;SDS011;52359;42.658;23.320;2023-03-14T09:21:34;20.55;;;8.55;;
43527;SDS011;52359;42.658;23.320;2023-03-14T09:24:00;13.32;;;7.72;;
43527;SDS011;52359;42.658;23.320;2023-03-14T09:26:26;9.98;;;7.65;;
43527;SDS011;52359;42.658;23.320;2023-03-14T09:28:52;18.55;;;8.52;;
43527;SDS011;52359;42.658;23.320;2023-03-14T09:31:18;18.27;;;8.77;;
43527;SDS011;52359;42.658;23.320;2023-03-14T09:33:44;13.15;;;8.05;;
43527;SDS011;52359;42.658;23.320;2023-03-14T09:36:10;18.70;;;8.07;;
43527;SDS011;52359;42.658;23.320;2023-03-14T09:38:36;12.52;;;7.35;;
43527;SDS011;52359;42.658;23.320;2023-03-14T09:41:03;11.82;;;7.53;;
43527;SDS011;52359;42.658;23.320;2023-03-14T09:43:36;20.27;;;7.97;;
43527;SDS011;52359;42.658;23.320;2023-03-14T09:46:02;13.32;;;8.10;;
43527;SDS011;52359;42.658;23.320;2023-03-14T09:48:29;17.17;;;6.90;;
43527;SDS011;52359;42.658;23.320;2023-03-14T09:50:56;16.15;;;7.10;;
43527;SDS011;52359;42.658;23.320;2023-03-14T09:53:24;14.93;;;7.80;;
43527;SDS011;52359;42.658;23.320;2023-03-14T09:55:52;12.73;;;7.25;;
43527;SDS011;52359;42.658;23.320;2023-03-14T09:58:20;16.48;;;6.72;;
43527;SDS011;52359;42.658;23.320;2023-03-14T10:00:47;21.85;;;7.43;;
43527;SDS011;52359;42.658;23.320;2023-03-14T10:06:11;15.77;;;7.07;;
43527;SDS011;52359;42.658;23.320;2023-03-14T10:08:39;8.60;;;6.82;;
43527;SDS011;52359;42.658;23.320;2023-03-14T10:11:13;16.25;;;7.30;;
43527;SDS011;52359;42.658;23.320;2023-03-14T10:13:47;19.98;;;7.22;;
43527;SDS011;52359;42.658;23.320;2023-03-14T10:16:15;16.27;;;7.60;;
43527;SDS011;52359;42.658;23.320;2023-03-14T10:18:44;13.40;;;6.90;;
43527;SDS011;52359;42.658;23.320;2023-03-14T10:23:48;10.52;;;6.70;;
43527;SDS011;52359;42.658;23.320;2023-03-14T10:26:15;14.52;;;7.03;;
43527;SDS011;52359;42.658;23.320;2023-03-14T10:28:44;24.83;;;7.25;;
43527;SDS011;52359;42.658;23.320;2023-03-14T10:31:10;12.30;;;7.13;;
43527;SDS011;52359;42.658;23.320;2023-03-14T10:33:37;9.27;;;6.93;;
43527;SDS011;52359;42.658;23.320;2023-03-14T10:36:05;9.63;;;6.70;;
43527;SDS011;52359;42.658;23.320;2023-03-14T10:38:34;14.43;;;7.25;;
43527;SDS011;52359;42.658;23.320;2023-03-14T10:41:01;14.55;;;6.75;;
43527;SDS011;52359;42.658;23.320;2023-03-14T10:43:31;7.85;;;7.05;;
43527;SDS011;52359;42.658;23.320;2023-03-14T10:45:57;20.45;;;7.72;;
43527;SDS011;52359;42.658;23.320;2023-03-14T10:48:29;11.70;;;7.45;;
43527;SDS011;52359;42.658;23.320;2023-03-14T10:53:25;13.88;;;6.97;;
43527;SDS011;52359;42.658;23.320;2023-03-14T10:55:51;13.50;;;5.93;;
43527;SDS011;52359;42.658;23.320;2023-03-14T10:58:21;10.98;;;5.90;;
43527;SDS011;52359;42.658;23.320;2023-03-14T11:03:37;7.63;;;5.28;;
43527;SDS011;52359;42.658;23.320;2023-03-14T11:06:09;6.55;;;4.25;;
43527;SDS011;52359;42.658;23.320;2023-03-14T11:08:48;5.78;;;5.03;;
43527;SDS011;52359;42.658;23.320;2023-03-14T11:11:20;6.03;;;5.15;;
43527;SDS011;52359;42.658;23.320;2023-03-14T11:19:00;14.48;;;4.78;;
43527;SDS011;52359;42.658;23.320;2023-03-14T11:24:12;13.20;;;4.43;;
43527;SDS011;52359;42.658;23.320;2023-03-14T11:31:40;11.18;;;4.53;;
43527;SDS011;52359;42.658;23.320;2023-03-14T11:36:45;7.07;;;3.40;;
43527;SDS011;52359;42.658;23.320;2023-03-14T11:39:13;5.07;;;2.80;;
43527;SDS011;52359;42.658;23.320;2023-03-14T11:41:40;5.15;;;2.67;;
43527;SDS011;52359;42.658;23.320;2023-03-14T11:44:14;4.22;;;2.85;;
43527;SDS011;52359;42.658;23.320;2023-03-14T11:46:46;4.05;;;2.67;;
43527;SDS011;52359;42.658;23.320;2023-03-14T11:49:17;6.70;;;3.30;;
43527;SDS011;52359;42.658;23.320;2023-03-14T11:51:50;6.50;;;3.40;;
43527;SDS011;52359;42.658;23.320;2023-03-14T11:56:58;4.63;;;3.10;;
43527;SDS011;52359;42.658;23.320;2023-03-14T12:01:55;5.40;;;2.90;;
43527;SDS011;52359;42.658;23.320;2023-03-14T12:06:49;9.43;;;2.70;;
43527;SDS011;52359;42.658;23.320;2023-03-14T12:09:16;3.80;;;2.85;;
43527;SDS011;52359;42.658;23.320;2023-03-14T12:16:43;7.03;;;2.72;;
43527;SDS011;52359;42.658;23.320;2023-03-14T12:21:51;4.68;;;2.22;;
43527;SDS011;52359;42.658;23.320;2023-03-14T12:24:19;11.50;;;2.58;;
43527;SDS011;52359;42.658;23.320;2023-03-14T12:26:52;3.75;;;2.50;;
43527;SDS011;52359;42.658;23.320;2023-03-14T12:31:48;4.95;;;2.83;;
43527;SDS011;52359;42.658;23.320;2023-03-14T12:42:04;12.02;;;2.63;;
43527;SDS011;52359;42.658;23.320;2023-03-14T12:46:56;4.28;;;2.38;;
43527;SDS011;52359;42.658;23.320;2023-03-14T12:49:41;5.97;;;2.47;;
43527;SDS011;52359;42.658;23.320;2023-03-14T12:52:13;7.70;;;2.60;;
43527;SDS011;52359;42.658;23.320;2023-03-14T12:59:51;13.20;;;2.88;;
43527;SDS011;52359;42.658;23.320;2023-03-14T13:05:00;5.72;;;2.15;;
43527;SDS011;52359;42.658;23.320;2023-03-14T13:10:04;7.97;;;2.40;;
43527;SDS011;52359;42.658;23.320;2023-03-14T13:12:52;4.40;;;2.03;;
43527;SDS011;52359;42.658;23.320;2023-03-14T13:15:18;3.78;;;1.95;;
43527;SDS011;52359;42.658;23.320;2023-03-14T13:17:45;14.75;;;2.63;;
43527;SDS011;52359;42.658;23.320;2023-03-14T13:20:12;8.40;;;3.00;;
43527;SDS011;52359;42.658;23.320;2023-03-14T13:22:45;7.93;;;2.20;;
43527;SDS011;52359;42.658;23.320;2023-03-14T13:25:11;4.43;;;1.98;;
43527;SDS011;52359;42.658;23.320;2023-03-14T13:27:37;10.98;;;2.40;;
43527;SDS011;52359;42.658;23.320;2023-03-14T13:33:11;10.15;;;2.13;;
43527;SDS011;52359;42.658;23.320;2023-03-14T13:35:41;4.50;;;2.13;;
43527;SDS011;52359;42.658;23.320;2023-03-14T13:38:24;11.10;;;3.13;;
43527;SDS011;52359;42.658;23.320;2023-03-14T13:40:51;10.98;;;2.70;;
43527;SDS011;52359;42.658;23.320;2023-03-14T13:43:25;7.03;;;2.47;;
43527;SDS011;52359;42.658;23.320;2023-03-14T13:46:01;6.00;;;1.80;;
43527;SDS011;52359;42.658;23.320;2023-03-14T13:48:28;2.60;;;1.75;;
43527;SDS011;52359;42.658;23.320;2023-03-14T13:50:56;5.95;;;2.53;;
43527;SDS011;52359;42.658;23.320;2023-03-14T13:53:24;2.13;;;1.80;;
43527;SDS011;52359;42.658;23.320;2023-03-14T13:55:50;3.28;;;1.90;;
43527;SDS011;52359;42.658;23.320;2023-03-14T13:58:27;3.00;;;1.52;;
43527;SDS011;52359;42.658;23.320;2023-03-14T14:00:58;7.13;;;1.70;;
43527;SDS011;52359;42.658;23.320;2023-03-14T14:03:24;12.18;;;2.05;;
43527;SDS011;52359;42.658;23.320;2023-03-14T14:05:50;11.55;;;1.95;;
43527;SDS011;52359;42.658;23.320;2023-03-14T14:08:16;5.63;;;2.20;;
43527;SDS011;52359;42.658;23.320;2023-03-14T14:10:43;7.28;;;1.90;;
43527;SDS011;52359;42.658;23.320;2023-03-14T14:13:13;3.45;;;2.28;;
43527;SDS011;52359;42.658;23.320;2023-03-14T14:15:41;2.22;;;1.90;;
43527;SDS011;52359;42.658;23.320;2023-03-14T14:18:09;2.33;;;2.13;;
43527;SDS011;52359;42.658;23.320;2023-03-14T14:20:41;2.10;;;1.73;;
43527;SDS011;52359;42.658;23.320;2023-03-14T14:23:12;18.60;;;2.17;;
43527;SDS011;52359;42.658;23.320;2023-03-14T14:25:38;51.38;;;6.65;;
43527;SDS011;52359;42.658;23.320;2023-03-14T14:31:05;3.83;;;1.90;;
43527;SDS011;52359;42.658;23.320;2023-03-14T14:33:39;9.60;;;2.65;;
43527;SDS011;52359;42.658;23.320;2023-03-14T14:36:05;4.45;;;2.08;;
43527;SDS011;52359;42.658;23.320;2023-03-14T14:38:38;2.35;;;2.10;;
43527;SDS011;52359;42.658;23.320;2023-03-14T14:41:04;3.30;;;2.08;;
43527;SDS011;52359;42.658;23.320;2023-03-14T14:43:30;3.83;;;2.28;;
43527;SDS011;52359;42.658;23.320;2023-03-14T14:45:59;5.63;;;2.08;;
43527;SDS011;52359;42.658;23.320;2023-03-14T14:48:25;4.63;;;1.98;;
43527;SDS011;52359;42.658;23.320;2023-03-14T14:51:02;8.30;;;2.20;;
43527;SDS011;52359;42.658;23.320;2023-03-14T14:53:30;2.40;;;1.65;;
43527;SDS011;52359;42.658;23.320;2023-03-14T14:55:57;2.45;;;1.90;;
43527;SDS011;52359;42.658;23.320;2023-03-14T14:58:39;5.25;;;1.88;;
43527;SDS011;52359;42.658;23.320;2023-03-14T15:01:16;4.68;;;1.90;;
43527;SDS011;52359;42.658;23.320;2023-03-14T15:03:43;2.38;;;2.10;;
43527;SDS011;52359;42.658;23.320;2023-03-14T15:06:13;2.80;;;1.80;;
43527;SDS011;52359;42.658;23.320;2023-03-14T15:08:39;7.03;;;2.15;;
43527;SDS011;52359;42.658;23.320;2023-03-14T15:11:06;6.20;;;2.00;;
43527;SDS011;52359;42.658;23.320;2023-03-14T15:13:32;3.90;;;1.92;;
43527;SDS011;52359;42.658;23.320;2023-03-14T15:15:58;2.30;;;1.83;;
43527;SDS011;52359;42.658;23.320;2023-03-14T15:18:25;5.55;;;2.17;;
43527;SDS011;52359;42.658;23.320;2023-03-14T15:20:51;7.13;;;2.30;;
43527;SDS011;52359;42.658;23.320;2023-03-14T15:23:18;7.93;;;2.08;;
43527;SDS011;52359;42.658;23.320;2023-03-14T15:25:44;4.75;;;1.73;;
43527;SDS011;52359;42.658;23.320;2023-03-14T15:30:51;8.75;;;2.63;;
43527;SDS011;52359;42.658;23.320;2023-03-14T15:33:17;3.75;;;1.92;;
43527;SDS011;52359;42.658;23.320;2023-03-14T18:32:37;3.88;;;2.80;;
43527;SDS011;52359;42.658;23.320;2023-03-14T18:35:03;7.15;;;3.65;;
43527;SDS011;52359;42.658;23.320;2023-03-14T18:37:30;10.65;;;3.63;;
43527;SDS011;52359;42.658;23.320;2023-03-14T18:39:56;7.50;;;3.58;;
43527;SDS011;52359;42.658;23.320;2023-03-14T18:42:22;8.43;;;3.08;;
43527;SDS011;52359;42.658;23.320;2023-03-14T18:44:48;10.15;;;2.88;;
43527;SDS011;52359;42.658;23.320;2023-03-14T18:47:14;5.03;;;2.97;;
43527;SDS011;52359;42.658;23.320;2023-03-14T18:49:40;3.63;;;2.70;;
43527;SDS011;52359;42.658;23.320;2023-03-14T18:52:06;4.68;;;3.05;;
43527;SDS011;52359;42.658;23.320;2023-03-14T18:54:32;8.07;;;4.43;;
43527;SDS011;52359;42.658;23.320;2023-03-14T18:56:58;14.43;;;3.97;;
43527;SDS011;52359;42.658;23.320;2023-03-14T18:59:24;6.20;;;4.18;;
43527;SDS011;52359;42.658;23.320;2023-03-14T19:01:51;7.88;;;3.20;;
43527;SDS011;52359;42.658;23.320;2023-03-14T19:04:18;4.40;;;2.58;;
43527;SDS011;52359;42.658;23.320;2023-03-14T19:06:44;5.95;;;2.60;;
43527;SDS011;52359;42.658;23.320;2023-03-14T19:09:13;5.65;;;2.53;;
43527;SDS011;52359;42.658;23.320;2023-03-14T19:11:40;6.35;;;2.45;;
43527;SDS011;52359;42.658;23.320;2023-03-14T19:14:07;8.40;;;3.30;;
43527;SDS011;52359;42.658;23.320;2023-03-14T19:16:34;4.55;;;3.15;;
43527;SDS011;52359;42.658;23.320;2023-03-14T19:19:00;7.65;;;3.17;;
43527;SDS011;52359;42.658;23.320;2023-03-14T19:21:27;7.95;;;3.03;;
43527;SDS011;52359;42.658;23.320;2023-03-14T19:23:53;4.22;;;3.05;;
43527;SDS011;52359;42.658;23.320;2023-03-14T19:26:19;7.57;;;2.97;;
43527;SDS011;52359;42.658;23.320;2023-03-14T19:28:46;3.90;;;2.80;;
43527;SDS011;52359;42.658;23.320;2023-03-14T19:31:12;7.00;;;3.30;;
43527;SDS011;52359;42.658;23.320;2023-03-14T19:33:38;7.32;;;4.35;;
43527;SDS011;52359;42.658;23.320;2023-03-14T19:36:04;8.07;;;3.00;;
43527;SDS011;52359;42.658;23.320;2023-03-14T19:38:30;7.32;;;3.42;;
43527;SDS011;52359;42.658;23.320;2023-03-14T19:40:56;8.15;;;4.10;;
43527;SDS011;52359;42.658;23.320;2023-03-14T19:43:23;16.10;;;4.38;;
43527;SDS011;52359;42.658;23.320;2023-03-14T19:45:49;8.73;;;4.15;;
43527;SDS011;52359;42.658;23.320;2023-03-14T19:48:15;9.73;;;4.72;;
43527;SDS011;52359;42.658;23.320;2023-03-14T19:50:42;7.53;;;4.90;;
43527;SDS011;52359;42.658;23.320;2023-03-14T19:53:08;11.43;;;4.70;;
43527;SDS011;52359;42.658;23.320;2023-03-14T19:55:35;7.90;;;4.47;;
43527;SDS011;52359;42.658;23.320;2023-03-14T19:58:02;19.75;;;7.50;;
43527;SDS011;52359;42.658;23.320;2023-03-14T20:00:28;8.77;;;5.07;;
43527;SDS011;52359;42.658;23.320;2023-03-14T20:02:54;10.50;;;4.82;;
43527;SDS011;52359;42.658;23.320;2023-03-14T20:05:21;8.95;;;4.90;;
43527;SDS011;52359;42.658;23.320;2023-03-14T20:07:47;7.93;;;5.13;;
43527;SDS011;52359;42.658;23.320;2023-03-14T20:10:14;15.57;;;5.60;;
43527;SDS011;52359;42.658;23.320;2023-03-14T20:12:41;12.30;;;5.85;;
43527;SDS011;52359;42.658;23.320;2023-03-14T20:15:07;14.43;;;5.85;;
43527;SDS011;52359;42.658;23.320;2023-03-14T20:17:34;13.40;;;6.03;;
43527;SDS011;52359;42.658;23.320;2023-03-14T20:20:05;13.18;;;5.80;;
43527;SDS011;52359;42.658;23.320;2023-03-14T20:22:33;16.63;;;5.65;;
43527;SDS011;52359;42.658;23.320;2023-03-14T20:25:01;11.10;;;5.57;;
43527;SDS011;52359;42.658;23.320;2023-03-14T20:27:29;14.68;;;5.47;;
43527;SDS011;52359;42.658;23.320;2023-03-14T20:29:55;10.60;;;5.90;;
43527;SDS011;52359;42.658;23.320;2023-03-14T20:32:21;12.20;;;6.45;;
43527;SDS011;52359;42.658;23.320;2023-03-14T20:34:47;23.15;;;5.70;;
43527;SDS011;52359;42.658;23.320;2023-03-14T20:37:13;8.80;;;5.65;;
43527;SDS011;52359;42.658;23.320;2023-03-14T20:39:39;8.20;;;5.57;;
43527;SDS011;52359;42.658;23.320;2023-03-14T20:42:06;16.23;;;5.95;;
43527;SDS011;52359;42.658;23.320;2023-03-14T20:44:32;20.00;;;6.18;;
43527;SDS011;52359;42.658;23.320;2023-03-14T20:46:58;12.10;;;5.80;;
43527;SDS011;52359;42.658;23.320;2023-03-14T20:49:24;14.70;;;6.65;;
43527;SDS011;52359;42.658;23.320;2023-03-14T20:51:51;9.60;;;6.20;;
43527;SDS011;52359;42.658;23.320;2023-03-14T20:54:17;9.45;;;6.82;;
43527;SDS011;52359;42.658;23.320;2023-03-14T20:56:43;12.20;;;6.05;;
43527;SDS011;52359;42.658;23.320;2023-03-14T20:59:10;14.25;;;6.60;;
43527;SDS011;52359;42.658;23.320;2023-03-14T21:01:36;13.30;;;7.22;;
43527;SDS011;52359;42.658;23.320;2023-03-14T21:04:03;13.45;;;7.28;;
43527;SDS011;52359;42.658;23.320;2023-03-14T21:06:29;11.35;;;6.72;;
43527;SDS011;52359;42.658;23.320;2023-03-14T21:08:56;14.27;;;7.32;;
43527;SDS011;52359;42.658;23.320;2023-03-14T21:11:23;15.52;;;7.20;;
43527;SDS011;52359;42.658;23.320;2023-03-14T21:13:49;12.27;;;7.68;;
43527;SDS011;52359;42.658;23.320;2023-03-14T21:16:15;14.32;;;7.10;;
43527;SDS011;52359;42.658;23.320;2023-03-14T21:18:41;14.68;;;7.13;;
43527;SDS011;52359;42.658;23.320;2023-03-14T21:21:07;16.65;;;8.13;;
43527;SDS011;52359;42.658;23.320;2023-03-14T21:23:33;17.83;;;7.35;;
43527;SDS011;52359;42.658;23.320;2023-03-14T21:25:59;17.55;;;7.40;;
43527;SDS011;52359;42.658;23.320;2023-03-14T21:28:26;16.83;;;7.53;;
43527;SDS011;52359;42.658;23.320;2023-03-14T21:30:53;12.55;;;6.40;;
43527;SDS011;52359;42.658;23.320;2023-03-14T21:33:19;21.42;;;7.10;;
43527;SDS011;52359;42.658;23.320;2023-03-14T21:35:45;14.93;;;7.07;;
43527;SDS011;52359;42.658;23.320;2023-03-14T21:38:11;13.68;;;7.28;;
43527;SDS011;52359;42.658;23.320;2023-03-14T21:40:37;11.50;;;6.68;;
43527;SDS011;52359;42.658;23.320;2023-03-14T21:43:03;19.88;;;7.97;;
43527;SDS011;52359;42.658;23.320;2023-03-14T21:45:29;14.13;;;8.27;;
43527;SDS011;52359;42.658;23.320;2023-03-14T21:47:56;11.07;;;7.22;;
43527;SDS011;52359;42.658;23.320;2023-03-14T21:50:24;20.45;;;7.20;;
43527;SDS011;52359;42.658;23.320;2023-03-14T21:52:50;26.30;;;8.70;;
43527;SDS011;52359;42.658;23.320;2023-03-14T21:55:20;23.80;;;9.68;;
43527;SDS011;52359;42.658;23.320;2023-03-14T21:57:49;20.55;;;9.70;;
43527;SDS011;52359;42.658;23.320;2023-03-14T22:00:16;21.95;;;9.25;;
43527;SDS011;52359;42.658;23.320;2023-03-14T22:02:44;23.33;;;10.23;;
43527;SDS011;52359;42.658;23.320;2023-03-14T22:05:11;23.73;;;10.88;;
43527;SDS011;52359;42.658;23.320;2023-03-14T22:07:37;17.42;;;9.82;;
43527;SDS011;52359;42.658;23.320;2023-03-14T22:10:05;18.98;;;10.77;;
43527;SDS011;52359;42.658;23.320;2023-03-14T22:12:31;19.10;;;9.68;;
43527;SDS011;52359;42.658;23.320;2023-03-14T22:14:57;22.45;;;9.10;;
43527;SDS011;52359;42.658;23.320;2023-03-14T22:17:23;23.63;;;9.70;;
43527;SDS011;52359;42.658;23.320;2023-03-14T22:19:49;23.35;;;9.50;;
43527;SDS011;52359;42.658;23.320;2023-03-14T22:22:15;16.70;;;8.13;;
43527;SDS011;52359;42.658;23.320;2023-03-14T22:24:41;15.27;;;7.88;;
43527;SDS011;52359;42.658;23.320;2023-03-14T22:27:07;22.02;;;7.45;;
43527;SDS011;52359;42.658;23.320;2023-03-14T22:29:33;21.58;;;8.75;;
43527;SDS011;52359;42.658;23.320;2023-03-14T22:32:02;11.73;;;6.68;;
43527;SDS011;52359;42.658;23.320;2023-03-14T22:34:28;15.98;;;5.93;;
43527;SDS011;52359;42.658;23.320;2023-03-14T22:36:56;14.63;;;6.70;;
43527;SDS011;52359;42.658;23.320;2023-03-14T22:39:22;10.02;;;7.03;;
43527;SDS011;52359;42.658;23.320;2023-03-14T22:41:48;20.02;;;8.70;;
43527;SDS011;52359;42.658;23.320;2023-03-14T22:44:14;22.02;;;8.07;;
43527;SDS011;52359;42.658;23.320;2023-03-14T22:46:40;18.20;;;9.20;;
43527;SDS011;52359;42.658;23.320;2023-03-14T22:49:06;19.25;;;8.90;;
43527;SDS011;52359;42.658;23.320;2023-03-14T22:51:32;16.65;;;8.95;;
43527;SDS011;52359;42.658;23.320;2023-03-14T22:53:58;14.35;;;7.88;;
43527;SDS011;52359;42.658;23.320;2023-03-14T22:56:24;22.83;;;9.52;;
43527;SDS011;52359;42.658;23.320;2023-03-14T22:58:50;15.10;;;8.10;;
43527;SDS011;52359;42.658;23.320;2023-03-14T23:01:16;15.90;;;8.30;;
43527;SDS011;52359;42.658;23.320;2023-03-14T23:03:42;13.18;;;7.75;;
43527;SDS011;52359;42.658;23.320;2023-03-14T23:06:08;15.50;;;7.22;;
43527;SDS011;52359;42.658;23.320;2023-03-14T23:08:34;21.08;;;8.10;;
43527;SDS011;52359;42.658;23.320;2023-03-14T23:11:02;22.33;;;9.68;;
43527;SDS011;52359;42.658;23.320;2023-03-14T23:13:29;21.95;;;9.75;;
43527;SDS011;52359;42.658;23.320;2023-03-14T23:15:55;28.13;;;9.70;;
43527;SDS011;52359;42.658;23.320;2023-03-14T23:18:22;22.45;;;9.50;;
43527;SDS011;52359;42.658;23.320;2023-03-14T23:20:51;23.75;;;8.90;;
43527;SDS011;52359;42.658;23.320;2023-03-14T23:23:17;20.65;;;10.05;;
